createdAt,value
2023-01-20T00:01:02.188Z,15.03
2023-01-20T00:03:32.039Z,16.03
2023-01-20T00:06:03.494Z,16.77
2023-01-20T00:08:33.218Z,18.07
2023-01-20T00:11:07.600Z,15.93
2023-01-20T00:13:38.564Z,15.43
2023-01-20T00:16:10.967Z,18.33
2023-01-20T00:18:41.638Z,15.33
2023-01-20T00:21:14.640Z,18.50
2023-01-20T00:23:44.298Z,15.73
2023-01-20T00:26:16.482Z,13.93
2023-01-20T00:28:48.141Z,17.23
2023-01-20T00:31:19.641Z,17.20
2023-01-20T00:33:51.553Z,15.93
2023-01-20T00:36:24.250Z,19.07
2023-01-20T00:38:54.823Z,15.10
2023-01-20T00:41:25.210Z,17.57
2023-01-20T00:43:55.190Z,17.60
2023-01-20T00:46:25.641Z,16.47
2023-01-20T00:48:56.637Z,16.93
2023-01-20T00:51:28.199Z,16.93
2023-01-20T00:53:58.524Z,19.00
2023-01-20T00:56:28.847Z,19.60
2023-01-20T00:58:59.113Z,21.70
2023-01-20T01:01:28.644Z,22.97
2023-01-20T01:03:58.468Z,18.70
2023-01-20T01:06:29.723Z,23.47
2023-01-20T01:08:59.511Z,19.70
2023-01-20T01:11:29.905Z,17.50
2023-01-20T01:14:00.126Z,17.30
2023-01-20T01:16:30.145Z,16.63
2023-01-20T01:19:01.099Z,16.50
2023-01-20T01:21:33.354Z,16.07
2023-01-20T01:24:03.754Z,16.80
2023-01-20T01:26:34.579Z,20.37
2023-01-20T01:29:04.603Z,15.67
2023-01-20T01:31:34.995Z,14.17
2023-01-20T01:34:04.834Z,15.70
2023-01-20T01:36:36.755Z,18.07
2023-01-20T01:39:06.656Z,17.10
2023-01-20T01:41:36.970Z,16.73
2023-01-20T01:44:10.174Z,32.70
2023-01-20T01:46:40.469Z,17.90
2023-01-20T01:49:14.196Z,16.17
2023-01-20T01:51:49.717Z,16.10
2023-01-20T01:54:22.769Z,14.03
2023-01-20T01:56:54.072Z,13.97
2023-01-20T01:59:24.535Z,15.03
2023-01-20T02:01:55.478Z,15.77
2023-01-20T02:04:27.566Z,16.90
2023-01-20T02:07:01.889Z,17.13
2023-01-20T02:09:32.801Z,14.63
2023-01-20T02:12:05.464Z,17.03
2023-01-20T02:14:38.432Z,16.33
2023-01-20T02:17:14.949Z,34.17
2023-01-20T02:20:20.231Z,18.63
2023-01-20T02:22:55.272Z,19.37
2023-01-20T02:25:56.083Z,17.47
2023-01-20T02:28:53.162Z,16.47
2023-01-20T02:31:56.667Z,17.87
2023-01-20T02:34:31.247Z,18.73
2023-01-20T02:37:04.960Z,16.63
2023-01-20T02:39:42.251Z,16.90
2023-01-20T02:42:14.677Z,19.37
2023-01-20T02:44:49.115Z,16.70
2023-01-20T02:47:23.411Z,19.43
2023-01-20T02:49:59.918Z,15.70
2023-01-20T02:52:33.363Z,14.33
2023-01-20T02:55:08.005Z,17.43
2023-01-20T02:57:41.747Z,16.00
2023-01-20T03:00:15.519Z,14.73
2023-01-20T03:02:49.038Z,14.30
2023-01-20T03:05:24.624Z,17.87
2023-01-20T03:07:56.175Z,16.40
2023-01-20T03:10:27.506Z,16.97
2023-01-20T03:12:59.357Z,16.57
2023-01-20T03:15:34.646Z,18.50
2023-01-20T03:18:05.071Z,14.37
2023-01-20T03:20:36.461Z,17.60
2023-01-20T03:23:12.055Z,14.30
2023-01-20T03:25:43.337Z,16.07
2023-01-20T03:28:13.350Z,15.47
2023-01-20T03:30:44.336Z,18.07
2023-01-20T03:33:16.494Z,15.07
2023-01-20T03:35:47.954Z,12.73
2023-01-20T03:38:18.994Z,14.97
2023-01-20T03:40:55.113Z,13.43
2023-01-20T03:43:34.178Z,13.97
2023-01-20T03:46:10.134Z,15.83
2023-01-20T03:48:44.433Z,14.07
2023-01-20T03:51:22.372Z,15.53
2023-01-20T03:53:56.743Z,15.87
2023-01-20T03:56:30.633Z,15.00
2023-01-20T03:59:02.630Z,15.83
2023-01-20T04:01:37.784Z,16.53
2023-01-20T04:04:11.669Z,13.87
2023-01-20T04:06:45.192Z,15.90
2023-01-20T04:09:19.328Z,14.60
2023-01-20T04:11:49.608Z,13.30
2023-01-20T04:14:20.308Z,12.07
2023-01-20T04:16:55.534Z,13.10
2023-01-20T04:19:26.073Z,12.43
2023-01-20T04:22:01.891Z,13.23
2023-01-20T04:24:35.275Z,13.10
2023-01-20T04:27:05.245Z,13.50
2023-01-20T04:29:35.158Z,16.10
2023-01-20T04:32:05.829Z,15.17
2023-01-20T04:34:36.759Z,13.37
2023-01-20T04:37:08.569Z,15.30
2023-01-20T04:39:38.628Z,16.87
2023-01-20T04:42:08.933Z,16.87
2023-01-20T04:44:38.904Z,14.93
2023-01-20T04:47:09.209Z,16.30
2023-01-20T04:49:40.563Z,16.53
2023-01-20T04:52:12.212Z,14.97
2023-01-20T04:54:42.831Z,14.80
2023-01-20T04:57:12.773Z,16.13
2023-01-20T04:59:46.114Z,16.60
2023-01-20T05:02:16.220Z,15.27
2023-01-20T05:04:46.706Z,13.93
2023-01-20T05:07:18.252Z,17.50
2023-01-20T05:09:48.156Z,15.20
2023-01-20T05:12:18.431Z,15.10
2023-01-20T05:14:48.621Z,16.37
2023-01-20T05:17:19.713Z,14.60
2023-01-20T05:19:50.528Z,19.53
2023-01-20T05:22:22.644Z,14.07
2023-01-20T05:24:52.892Z,16.87
2023-01-20T05:27:22.850Z,16.30
2023-01-20T05:29:52.581Z,15.50
2023-01-20T05:32:22.572Z,14.60
2023-01-20T05:34:52.648Z,14.97
2023-01-20T05:37:25.428Z,12.67
2023-01-20T05:39:55.544Z,13.43
2023-01-20T05:42:26.041Z,15.47
2023-01-20T05:44:56.173Z,13.97
2023-01-20T05:47:26.457Z,13.80
2023-01-20T05:49:57.074Z,15.20
2023-01-20T05:52:29.085Z,14.03
2023-01-20T05:54:59.657Z,10.77
2023-01-20T05:57:30.143Z,12.83
2023-01-20T06:00:12.901Z,10.50
2023-01-20T06:02:44.119Z,11.13
2023-01-20T06:05:14.338Z,10.67
2023-01-20T06:07:46.210Z,11.20
2023-01-20T06:10:16.479Z,14.37
2023-01-20T06:12:47.005Z,11.23
2023-01-20T06:15:17.124Z,14.50
2023-01-20T06:17:47.923Z,10.87
2023-01-20T06:20:19.359Z,10.77
2023-01-20T06:22:51.169Z,11.37
2023-01-20T06:25:20.663Z,13.90
2023-01-20T06:27:51.166Z,11.00
2023-01-20T06:30:21.730Z,12.40
2023-01-20T06:32:52.044Z,11.33
2023-01-20T06:35:22.366Z,11.87
2023-01-20T06:37:54.403Z,10.30
2023-01-20T06:40:24.766Z,12.23
2023-01-20T06:42:54.984Z,14.97
2023-01-20T06:45:25.404Z,11.30
2023-01-20T06:47:55.723Z,11.10
2023-01-20T06:50:26.542Z,13.03
2023-01-20T06:52:58.814Z,10.07
2023-01-20T06:55:29.235Z,10.53
2023-01-20T06:57:59.174Z,10.80
2023-01-20T07:00:29.110Z,11.47
2023-01-20T07:02:58.974Z,12.93
2023-01-20T07:05:30.095Z,14.10
2023-01-20T07:08:01.574Z,13.47
2023-01-20T07:10:32.518Z,13.73
2023-01-20T07:13:02.354Z,16.27
2023-01-20T07:15:31.984Z,13.57
2023-01-20T07:18:02.435Z,14.07
2023-01-20T07:20:32.915Z,15.83
2023-01-20T07:23:05.398Z,14.53
2023-01-20T07:25:38.192Z,16.57
2023-01-20T07:28:09.543Z,17.60
2023-01-20T07:30:40.745Z,19.30
2023-01-20T07:33:11.648Z,19.50
2023-01-20T07:35:42.113Z,16.20
2023-01-20T07:38:13.696Z,16.20
2023-01-20T07:40:43.734Z,18.50
2023-01-20T07:43:13.332Z,16.07
2023-01-20T07:45:43.686Z,16.50
2023-01-20T07:48:14.081Z,16.43
2023-01-20T07:50:44.229Z,15.90
2023-01-20T07:53:15.910Z,18.93
2023-01-20T07:55:46.581Z,20.87
2023-01-20T07:58:16.838Z,18.07
2023-01-20T08:00:49.555Z,23.93
2023-01-20T08:03:19.792Z,21.67
2023-01-20T08:05:49.793Z,16.90
2023-01-20T08:08:21.833Z,17.83
2023-01-20T08:10:55.904Z,20.40
2023-01-20T08:13:26.623Z,21.17
2023-01-20T08:15:56.486Z,20.63
2023-01-20T08:18:26.831Z,23.50
2023-01-20T08:20:57.077Z,20.63
2023-01-20T08:23:29.654Z,26.80
2023-01-20T08:26:02.426Z,19.23
2023-01-20T08:28:36.606Z,20.60
2023-01-20T08:31:09.654Z,18.63
2023-01-20T08:33:40.475Z,17.63
2023-01-20T08:36:14.607Z,20.10
2023-01-20T08:38:47.265Z,19.07
2023-01-20T08:41:20.689Z,17.57
2023-01-20T08:43:51.720Z,19.20
2023-01-20T08:46:23.245Z,17.27
2023-01-20T08:48:54.524Z,17.70
2023-01-20T08:51:27.460Z,22.70
2023-01-20T08:53:59.226Z,18.80
2023-01-20T08:56:29.637Z,16.00
2023-01-20T08:59:00.675Z,15.90
2023-01-20T09:01:38.296Z,19.33
2023-01-20T09:04:09.560Z,14.03
2023-01-20T09:06:41.626Z,10.87
2023-01-20T09:09:14.350Z,7.00
2023-01-20T09:11:51.404Z,6.87
2023-01-20T09:14:22.538Z,5.47
2023-01-20T09:16:52.422Z,8.97
2023-01-20T09:19:23.243Z,6.27
2023-01-20T09:21:53.407Z,4.97
2023-01-20T09:24:26.592Z,3.70
2023-01-20T09:26:57.364Z,5.90
2023-01-20T09:29:27.849Z,2.90
2023-01-20T09:31:59.151Z,5.33
2023-01-20T09:34:30.910Z,7.13
2023-01-20T09:37:22.997Z,3.17
2023-01-20T09:40:11.649Z,4.47
2023-01-20T09:43:13.934Z,3.57
2023-01-20T09:45:50.075Z,4.07
2023-01-20T09:48:45.027Z,4.50
2023-01-20T09:51:36.645Z,2.83
2023-01-20T09:54:12.409Z,3.70
2023-01-20T09:56:49.487Z,4.60
2023-01-20T09:59:26.603Z,4.80
2023-01-20T10:01:59.345Z,7.50
2023-01-20T10:04:36.198Z,4.70
2023-01-20T10:07:10.941Z,4.17
2023-01-20T10:09:46.608Z,4.67
2023-01-20T10:12:23.384Z,6.40
2023-01-20T10:15:00.379Z,4.60
2023-01-20T10:17:34.103Z,4.60
2023-01-20T10:20:07.499Z,4.63
2023-01-20T10:22:42.433Z,4.03
2023-01-20T10:25:15.835Z,6.30
2023-01-20T10:27:52.425Z,3.40
2023-01-20T10:30:26.285Z,5.03
2023-01-20T10:33:00.854Z,6.87
2023-01-20T10:35:33.473Z,3.27
2023-01-20T10:38:03.790Z,6.93
2023-01-20T10:40:38.879Z,4.37
2023-01-20T10:43:16.170Z,6.17
2023-01-20T10:46:08.590Z,4.00
2023-01-20T10:49:02.213Z,4.97
2023-01-20T10:51:40.869Z,3.27
2023-01-20T10:54:21.614Z,5.87
2023-01-20T10:56:54.652Z,7.70
2023-01-20T10:59:30.954Z,3.87
2023-01-20T11:02:12.361Z,3.23
2023-01-20T11:04:44.273Z,4.77
2023-01-20T11:07:18.246Z,4.93
2023-01-20T11:09:50.168Z,5.30
2023-01-20T11:12:22.655Z,4.43
2023-01-20T11:14:56.782Z,4.53
2023-01-20T11:17:27.353Z,4.60
2023-01-20T11:19:58.366Z,4.60
2023-01-20T11:22:33.564Z,8.10
2023-01-20T11:25:05.870Z,7.53
2023-01-20T11:27:43.576Z,4.43
2023-01-20T11:30:26.383Z,7.80
2023-01-20T11:33:18.562Z,7.03
2023-01-20T11:36:03.692Z,4.27
2023-01-20T11:38:42.227Z,6.77
2023-01-20T11:41:22.189Z,3.87
2023-01-20T11:43:53.382Z,6.60
2023-01-20T11:46:38.780Z,4.30
2023-01-20T11:49:20.356Z,5.57
2023-01-20T11:51:53.608Z,5.10
2023-01-20T11:54:25.771Z,5.73
2023-01-20T11:56:57.934Z,6.33
2023-01-20T11:59:31.146Z,4.00
2023-01-20T12:02:11.164Z,3.60
2023-01-20T12:05:04.662Z,3.77
2023-01-20T12:07:37.857Z,3.90
2023-01-20T12:10:18.640Z,3.23
2023-01-20T12:12:52.806Z,4.67
2023-01-20T12:15:25.668Z,7.00
2023-01-20T12:18:01.596Z,6.73
2023-01-20T12:20:49.268Z,4.30
2023-01-20T12:23:32.198Z,5.10
2023-01-20T12:26:04.939Z,4.23
2023-01-20T12:28:41.526Z,4.13
2023-01-20T12:31:12.487Z,4.57
2023-01-20T12:33:46.870Z,3.87
2023-01-20T12:36:28.664Z,3.47
2023-01-20T12:39:27.453Z,5.70
2023-01-20T12:42:32.804Z,5.20
2023-01-20T12:45:09.973Z,2.60
2023-01-20T12:47:50.304Z,4.37
2023-01-20T12:50:40.168Z,4.80
2023-01-20T12:53:22.764Z,7.60
2023-01-20T12:56:04.534Z,4.73
2023-01-20T12:58:43.655Z,3.80
2023-01-20T13:01:51.712Z,3.60
2023-01-20T13:04:51.575Z,3.83
2023-01-20T13:07:41.725Z,3.27
2023-01-20T13:10:41.316Z,4.17
2023-01-20T13:13:31.255Z,4.80
2023-01-20T13:16:04.481Z,5.30
2023-01-20T13:18:42.822Z,3.13
2023-01-20T13:21:21.181Z,5.90
2023-01-20T13:23:53.853Z,3.17
2023-01-20T13:26:27.442Z,3.73
2023-01-20T13:29:00.892Z,3.50
2023-01-20T13:31:46.396Z,6.13
2023-01-20T13:34:36.081Z,3.23
2023-01-20T13:37:31.462Z,4.57
2023-01-20T13:40:03.067Z,6.13
2023-01-20T13:42:52.463Z,4.50
2023-01-20T13:45:28.284Z,5.10
2023-01-20T13:48:02.607Z,4.93
2023-01-20T13:50:35.333Z,8.03
2023-01-20T13:53:28.782Z,5.60
2023-01-20T13:56:02.203Z,4.43
2023-01-20T13:58:34.526Z,5.50
2023-01-20T14:01:06.678Z,3.90
2023-01-20T14:03:38.680Z,4.50
2023-01-20T14:06:23.873Z,8.80
2023-01-20T14:08:55.204Z,5.60
2023-01-20T14:11:28.133Z,4.87
2023-01-20T14:13:59.995Z,3.93
2023-01-20T14:16:32.172Z,3.33
2023-01-20T14:19:04.873Z,5.37
2023-01-20T14:21:43.556Z,2.80
2023-01-20T14:24:31.102Z,3.53
2023-01-20T14:27:19.630Z,4.00
2023-01-20T14:29:50.967Z,2.33
2023-01-20T14:32:22.550Z,4.10
2023-01-20T14:34:53.777Z,2.70
2023-01-20T14:37:29.448Z,3.83
2023-01-20T14:40:01.527Z,3.00
2023-01-20T14:42:33.993Z,3.03
2023-01-20T14:45:04.998Z,3.20
2023-01-20T14:47:36.049Z,3.40
2023-01-20T14:50:06.774Z,6.13
2023-01-20T14:52:37.138Z,5.13
2023-01-20T14:55:08.218Z,2.30
2023-01-20T14:57:44.574Z,3.37
2023-01-20T15:00:27.613Z,2.93
2023-01-20T15:03:11.399Z,2.23
2023-01-20T15:05:53.502Z,3.10
2023-01-20T15:08:26.492Z,2.50
2023-01-20T15:11:21.682Z,3.60
2023-01-20T15:14:09.700Z,3.50
2023-01-20T15:16:47.653Z,2.57
2023-01-20T15:19:23.118Z,4.33
2023-01-20T15:21:56.775Z,2.70
2023-01-20T15:24:30.900Z,3.80
2023-01-20T15:27:03.092Z,1.80
2023-01-20T15:29:37.284Z,3.27
2023-01-20T15:32:13.452Z,2.80
2023-01-20T15:34:43.725Z,2.10
2023-01-20T15:37:20.084Z,2.50
2023-01-20T15:39:50.123Z,3.80
2023-01-20T15:42:20.458Z,2.60
2023-01-20T15:44:51.470Z,3.63
2023-01-20T15:47:26.546Z,3.20
2023-01-20T15:49:55.974Z,2.80
2023-01-20T15:52:25.903Z,2.30
2023-01-20T15:54:55.609Z,2.67
2023-01-20T15:57:25.572Z,4.70
2023-01-20T15:59:57.616Z,6.50
2023-01-20T16:02:28.335Z,3.10
2023-01-20T16:04:58.714Z,2.97
2023-01-20T16:07:30.945Z,2.13
2023-01-20T16:10:01.083Z,3.33
2023-01-20T16:12:31.648Z,2.87
2023-01-20T16:15:02.456Z,3.50
2023-01-20T16:17:33.359Z,3.33
2023-01-20T16:20:03.230Z,3.07
2023-01-20T16:22:33.810Z,5.30
2023-01-20T16:25:04.603Z,3.20
2023-01-20T16:27:34.647Z,2.53
2023-01-20T16:30:07.135Z,3.40
2023-01-20T16:32:39.415Z,4.23
2023-01-20T16:35:11.077Z,4.17
2023-01-20T16:37:41.492Z,3.20
2023-01-20T16:40:15.256Z,5.43
2023-01-20T16:42:46.460Z,3.77
2023-01-20T16:45:26.483Z,4.73
2023-01-20T16:47:57.572Z,3.40
2023-01-20T16:50:28.770Z,4.73
2023-01-20T16:52:59.474Z,7.53
2023-01-20T16:55:29.949Z,2.70
2023-01-20T16:58:00.225Z,3.43
2023-01-20T17:00:32.224Z,3.33
2023-01-20T17:03:02.742Z,3.40
2023-01-20T17:05:33.553Z,2.80
2023-01-20T17:08:03.345Z,3.33
2023-01-20T17:10:34.259Z,3.30
2023-01-20T17:13:04.697Z,2.03
2023-01-20T17:15:36.842Z,2.13
2023-01-20T17:18:07.308Z,2.57
2023-01-20T17:20:37.628Z,3.00
2023-01-20T17:23:07.287Z,3.57
2023-01-20T17:25:37.690Z,3.40
2023-01-20T17:28:08.080Z,3.93
2023-01-20T17:30:40.439Z,3.40
2023-01-20T17:33:10.319Z,3.63
2023-01-20T17:35:40.188Z,3.33
2023-01-20T17:38:11.037Z,2.07
2023-01-20T17:40:41.758Z,4.80
2023-01-20T17:43:12.456Z,3.13
2023-01-20T17:45:44.069Z,3.63
2023-01-20T17:48:14.905Z,2.87
2023-01-20T17:50:44.871Z,3.83
2023-01-20T17:53:14.958Z,7.80
2023-01-20T17:55:44.765Z,5.37
2023-01-20T17:58:15.522Z,5.33
2023-01-20T18:00:47.214Z,5.73
2023-01-20T18:03:17.902Z,5.30
2023-01-20T18:05:49.661Z,4.70
2023-01-20T18:08:19.995Z,3.63
2023-01-20T18:10:50.818Z,5.13
2023-01-20T18:13:20.573Z,4.50
2023-01-20T18:15:52.494Z,3.37
2023-01-20T18:18:22.613Z,4.07
2023-01-20T18:20:54.723Z,4.50
2023-01-20T18:23:24.918Z,3.37
2023-01-20T18:25:56.620Z,3.53
2023-01-20T18:28:26.772Z,4.43
2023-01-20T18:31:08.161Z,3.43
2023-01-20T18:33:41.402Z,4.90
2023-01-20T18:36:14.864Z,5.83
2023-01-20T18:38:45.781Z,3.40
2023-01-20T18:41:17.286Z,5.07
2023-01-20T18:43:50.980Z,5.60
2023-01-20T18:46:22.870Z,6.47
2023-01-20T18:48:55.127Z,3.00
2023-01-20T18:51:27.697Z,5.30
2023-01-20T18:53:58.728Z,3.43
2023-01-20T18:56:29.882Z,3.57
2023-01-20T18:58:59.693Z,3.20
2023-01-20T19:01:34.280Z,3.27
2023-01-20T19:04:05.170Z,4.83
2023-01-20T19:06:39.139Z,3.90
2023-01-20T19:09:09.859Z,5.63
2023-01-20T19:11:42.725Z,4.23
2023-01-20T19:14:15.413Z,5.43
2023-01-20T19:16:49.511Z,9.23
2023-01-20T19:19:20.682Z,5.30
2023-01-20T19:21:54.272Z,5.27
2023-01-20T19:24:29.416Z,4.03
2023-01-20T19:27:00.597Z,4.90
2023-01-20T19:29:30.845Z,2.87
2023-01-20T19:32:02.952Z,8.03
2023-01-20T19:34:32.804Z,4.07
2023-01-20T19:37:03.683Z,6.43
2023-01-20T19:39:33.923Z,4.57
2023-01-20T19:42:04.128Z,4.53
2023-01-20T19:44:33.890Z,4.30
2023-01-20T19:47:04.992Z,4.23
2023-01-20T19:49:35.321Z,4.93
2023-01-20T19:52:06.138Z,4.23
2023-01-20T19:54:37.848Z,3.40
2023-01-20T19:57:08.019Z,3.67
2023-01-20T19:59:41.339Z,3.43
2023-01-20T20:02:12.496Z,2.87
2023-01-20T20:04:42.789Z,4.50
2023-01-20T20:07:12.771Z,5.20
2023-01-20T20:09:44.078Z,4.40
2023-01-20T20:12:14.437Z,4.57
2023-01-20T20:14:44.373Z,5.10
2023-01-20T20:17:16.045Z,5.50
2023-01-20T20:19:46.071Z,4.03
2023-01-20T20:22:16.179Z,3.73
2023-01-20T20:24:47.767Z,3.73
2023-01-20T20:27:17.518Z,3.63
2023-01-20T20:29:47.933Z,3.70
2023-01-20T20:32:19.529Z,6.37
2023-01-20T20:34:50.645Z,2.77
2023-01-20T20:37:20.623Z,3.73
2023-01-20T20:39:51.124Z,5.23
2023-01-20T20:42:21.428Z,3.07
2023-01-20T20:44:51.953Z,2.97
2023-01-20T20:47:26.961Z,3.30
2023-01-20T20:49:58.119Z,5.27
2023-01-20T20:52:28.348Z,2.50
2023-01-20T20:54:58.377Z,3.73
2023-01-20T20:57:28.724Z,2.30
2023-01-20T20:59:59.564Z,4.43
2023-01-20T21:02:31.535Z,4.23
2023-01-20T21:05:02.196Z,2.20
2023-01-20T21:07:32.437Z,2.20
2023-01-20T21:10:04.768Z,2.90
2023-01-20T21:12:34.885Z,3.00
2023-01-20T21:15:06.468Z,2.37
2023-01-20T21:17:38.055Z,2.30
2023-01-20T21:20:10.540Z,2.63
2023-01-20T21:22:41.909Z,2.57
2023-01-20T21:25:12.493Z,3.43
2023-01-20T21:27:43.054Z,2.50
2023-01-20T21:30:15.560Z,2.47
2023-01-20T21:32:47.423Z,5.50
2023-01-20T21:35:17.868Z,1.87
2023-01-20T21:37:48.441Z,8.30
2023-01-20T21:40:19.168Z,2.10
2023-01-20T21:42:50.045Z,2.47
2023-01-20T21:45:18.938Z,1.60
2023-01-20T21:47:50.439Z,1.30
2023-01-20T21:50:38.428Z,2.30
2023-01-20T21:53:09.313Z,2.50
2023-01-20T21:55:39.695Z,1.90
2023-01-20T21:58:10.484Z,1.40
2023-01-20T22:00:41.206Z,1.70
2023-01-20T22:03:12.665Z,2.10
2023-01-20T22:05:43.312Z,2.00
2023-01-20T22:08:13.633Z,2.37
2023-01-20T22:10:44.723Z,3.23
2023-01-20T22:13:14.680Z,2.37
2023-01-20T22:15:44.988Z,2.70
2023-01-20T22:18:16.649Z,2.50
2023-01-20T22:20:47.305Z,2.13
2023-01-20T22:23:17.762Z,2.00
2023-01-20T22:25:48.098Z,2.17
2023-01-20T22:28:18.709Z,2.57
2023-01-20T22:30:48.821Z,2.23
2023-01-20T22:33:20.593Z,2.30
2023-01-20T22:35:50.809Z,2.60
2023-01-20T22:38:21.261Z,2.77
2023-01-20T22:40:51.613Z,2.77
2023-01-20T22:43:22.868Z,2.20
2023-01-20T22:46:01.301Z,1.50
2023-01-20T22:48:35.328Z,2.23
2023-01-20T22:51:07.317Z,2.53
2023-01-20T22:53:38.299Z,3.13
2023-01-20T22:56:11.379Z,2.23
2023-01-20T22:58:42.162Z,2.13
2023-01-20T23:01:15.156Z,3.13
2023-01-20T23:03:46.865Z,2.90
2023-01-20T23:06:17.128Z,2.10
2023-01-20T23:08:48.498Z,2.20
2023-01-20T23:11:21.628Z,3.27
2023-01-20T23:13:52.785Z,2.73
2023-01-20T23:16:24.793Z,4.37
2023-01-20T23:18:57.551Z,2.13
2023-01-20T23:21:27.574Z,2.53
2023-01-20T23:23:57.796Z,2.43
2023-01-20T23:26:30.185Z,3.40
2023-01-20T23:29:00.229Z,2.33
2023-01-20T23:31:33.525Z,2.97
2023-01-20T23:34:05.047Z,2.40
2023-01-20T23:36:35.042Z,2.33
2023-01-20T23:39:04.928Z,2.47
2023-01-20T23:41:35.201Z,2.90
2023-01-20T23:44:05.554Z,3.47
2023-01-20T23:46:36.285Z,2.03
2023-01-20T23:49:07.789Z,2.67
2023-01-20T23:51:38.849Z,2.30
2023-01-20T23:54:10.244Z,1.83
2023-01-20T23:56:40.293Z,2.50
2023-01-20T23:59:10.867Z,2.63
